Time;durP1;ratioP1;P1;durP2;ratioP2;P2;SDS_P1;SDS_P2;PMS_P1;PMS_P2;Temp;Humidity;BMP_temperature;BMP_pressure;BME280_temperature;BME280_humidity;BME280_pressure;Samples;Min_cycle;Max_cycle;Signal;HPM_P1;HPM_P2
2023/05/28 00:02:24;;;;;;;27.50;7.18;;;;;;;-142.75;100.00;77212.06;5048388;28;20082;-65
2023/05/28 00:04:50;;;;;;;21.13;7.03;;;;;;;-142.75;100.00;77212.06;5048308;28;20025;-63
2023/05/28 00:07:15;;;;;;;19.48;6.82;;;;;;;-142.75;100.00;77210.09;5048472;28;20017;-65
2023/05/28 00:09:41;;;;;;;18.20;6.50;;;;;;;-142.75;100.00;77208.13;5048065;28;20038;-65
2023/05/28 00:12:07;;;;;;;20.98;7.05;;;;;;;-142.75;100.00;77214.03;5048703;28;20404;-64
2023/05/28 00:14:33;;;;;;;17.48;6.57;;;;;;;-142.75;100.00;77204.19;5048298;28;20667;-65
2023/05/28 00:16:58;;;;;;;19.65;7.10;;;;;;;-142.75;100.00;77204.19;5048289;28;20036;-64
2023/05/28 00:19:23;;;;;;;17.85;6.55;;;;;;;-142.75;100.00;77208.13;5048074;28;20052;-64
2023/05/28 00:21:48;;;;;;;19.95;6.43;;;;;;;-142.75;100.00;77212.06;5048245;28;20025;-65
2023/05/28 00:24:14;;;;;;;17.88;6.53;;;;;;;-142.75;100.00;77212.06;5048082;28;20060;-65
2023/05/28 00:26:39;;;;;;;19.63;7.53;;;;;;;-142.75;100.00;77212.06;5048002;28;20024;-62
2023/05/28 00:29:05;;;;;;;18.05;6.35;;;;;;;-142.75;100.00;77221.91;5048339;28;20036;-65
2023/05/28 00:31:30;;;;;;;15.52;5.65;;;;;;;-142.75;100.00;77221.91;5047772;28;20033;-65
2023/05/28 00:33:56;;;;;;;26.05;7.18;;;;;;;-142.75;100.00;77219.94;5047800;28;20009;-65
2023/05/28 00:36:21;;;;;;;21.05;6.72;;;;;;;-142.75;100.00;77196.31;5047947;28;20546;-65
2023/05/28 00:38:47;;;;;;;19.33;6.70;;;;;;;-142.75;100.00;77192.38;5047775;28;20039;-65
2023/05/28 00:41:12;;;;;;;18.52;7.13;;;;;;;-142.75;100.00;77168.75;5047681;28;20150;-65
2023/05/28 00:43:38;;;;;;;29.50;7.78;;;;;;;-142.75;100.00;77156.94;5047705;28;20070;-65
2023/05/28 00:46:05;;;;;;;20.40;6.63;;;;;;;-142.75;100.00;77154.97;5047847;28;20500;-65
2023/05/28 00:48:31;;;;;;;17.00;7.03;;;;;;;-142.75;100.00;77164.81;5047605;28;20402;-65
2023/05/28 00:50:58;;;;;;;19.30;6.85;;;;;;;-142.75;100.00;77147.09;5046893;28;20032;-65
2023/05/28 00:53:24;;;;;;;17.40;6.97;;;;;;;-142.75;100.00;77149.06;5047475;28;20090;-65
2023/05/28 00:55:50;;;;;;;15.43;6.38;;;;;;;-142.75;100.00;77156.94;5047707;28;20025;-64
2023/05/28 00:58:16;;;;;;;20.00;6.50;;;;;;;-142.75;100.00;77176.63;5047532;28;20545;-64
2023/05/28 01:00:43;;;;;;;14.75;5.50;;;;;;;-142.75;100.00;77180.56;5047275;28;20032;-64
2023/05/28 01:03:09;;;;;;;19.05;6.72;;;;;;;-142.75;100.00;77174.66;5047419;28;20021;-65
2023/05/28 01:05:35;;;;;;;20.42;6.15;;;;;;;-142.75;100.00;77180.56;5047380;28;20024;-65
2023/05/28 01:08:05;;;;;;;15.93;5.85;;;;;;;-142.75;100.00;77188.44;5047214;28;20039;-65
2023/05/28 01:10:31;;;;;;;14.30;5.20;;;;;;;-142.75;100.00;77184.50;5046844;28;20359;-65
2023/05/28 01:13:00;;;;;;;15.05;5.93;;;;;;;-142.75;100.00;77194.34;5047196;28;20059;-65
2023/05/28 01:15:25;;;;;;;13.57;6.05;;;;;;;-142.75;100.00;77204.19;5047194;28;20109;-65
2023/05/28 01:17:57;;;;;;;15.27;5.30;;;;;;;-142.75;100.00;77206.16;5047009;28;20048;-65
2023/05/28 01:20:23;;;;;;;14.35;6.20;;;;;;;-142.75;100.00;77208.13;5062030;28;20417;-65
2023/05/28 01:22:53;;;;;;;17.83;6.40;;;;;;;-142.75;100.00;77196.31;5047234;28;20021;-65
2023/05/28 01:25:20;;;;;;;19.38;6.75;;;;;;;-142.75;100.00;77200.25;5045751;28;20047;-65
2023/05/28 01:27:45;;;;;;;14.45;6.93;;;;;;;-142.75;100.00;77204.19;5062513;28;20024;-64
2023/05/28 01:30:12;;;;;;;14.60;6.00;;;;;;;-142.75;100.00;77206.16;5066573;28;20055;-64
2023/05/28 01:32:40;;;;;;;14.40;6.20;;;;;;;-142.75;100.00;77210.09;5049185;28;20705;-65
2023/05/28 01:35:08;;;;;;;13.65;5.68;;;;;;;-142.75;100.00;77217.97;5047033;28;20473;-65
2023/05/28 01:37:39;;;;;;;15.38;5.78;;;;;;;-142.75;100.00;77223.88;5046738;28;20027;-65
2023/05/28 01:40:07;;;;;;;16.08;6.00;;;;;;;-142.75;100.00;77223.88;5046800;28;20021;-65
2023/05/28 01:42:34;;;;;;;15.07;5.45;;;;;;;-142.75;100.00;77233.72;5046418;28;20056;-65
2023/05/28 01:45:02;;;;;;;20.17;6.00;;;;;;;-142.75;100.00;77247.50;5046820;28;20132;-65
2023/05/28 01:47:29;;;;;;;18.20;7.18;;;;;;;-142.75;100.00;77251.44;5045158;28;20029;-65
2023/05/28 01:49:55;;;;;;;15.02;5.95;;;;;;;-142.75;100.00;77255.38;5046298;28;20028;-65
2023/05/28 01:52:20;;;;;;;19.52;5.75;;;;;;;-142.75;100.00;77255.38;5046375;28;20082;-64
2023/05/28 01:54:46;;;;;;;18.30;6.05;;;;;;;-142.75;100.00;77251.44;5045427;28;20025;-65
2023/05/28 01:57:11;;;;;;;15.77;6.20;;;;;;;-142.75;100.00;77259.31;5046565;28;20028;-65
2023/05/28 01:59:37;;;;;;;12.48;5.88;;;;;;;-142.75;100.00;77261.28;5046465;28;20748;-65
2023/05/28 02:02:02;;;;;;;13.02;5.88;;;;;;;-142.75;100.00;77267.19;5045961;28;20517;-65
2023/05/28 02:04:28;;;;;;;14.40;6.40;;;;;;;-142.75;100.00;77269.16;5061369;28;20497;-65
2023/05/28 02:06:53;;;;;;;20.52;5.88;;;;;;;-142.75;100.00;77282.94;5046242;28;20096;-65
2023/05/28 02:09:18;;;;;;;13.65;5.72;;;;;;;-142.75;100.00;77300.66;5046153;28;20105;-64
2023/05/28 02:11:44;;;;;;;20.02;6.13;;;;;;;-142.75;100.00;77286.88;5046287;28;20090;-65
2023/05/28 02:14:14;;;;;;;20.00;7.07;;;;;;;-142.75;100.00;77294.75;5046361;28;20020;-64
2023/05/28 02:16:47;;;;;;;19.02;6.82;;;;;;;-142.75;100.00;77282.94;5046007;28;20032;-64
2023/05/28 02:19:13;;;;;;;20.27;7.30;;;;;;;-142.75;100.00;77284.91;5046171;28;20036;-65
2023/05/28 02:21:38;;;;;;;16.92;6.93;;;;;;;-142.75;100.00;77279.00;5046283;28;20021;-65
2023/05/28 02:24:04;;;;;;;18.88;6.63;;;;;;;-142.75;100.00;77286.88;5044996;28;20028;-65
2023/05/28 02:26:29;;;;;;;15.60;6.22;;;;;;;-142.75;100.00;77275.06;5046214;28;21416;-66
2023/05/28 02:28:55;;;;;;;14.52;6.35;;;;;;;-142.75;100.00;77279.00;5045991;28;20395;-65
2023/05/28 02:31:20;;;;;;;22.63;7.22;;;;;;;-142.75;100.00;77279.00;5045878;28;20394;-64
2023/05/28 02:33:45;;;;;;;15.88;6.20;;;;;;;-142.75;100.00;77271.13;5046547;28;20021;-65
2023/05/28 02:36:11;;;;;;;17.13;6.97;;;;;;;-142.75;100.00;77267.19;5046375;28;20494;-64
2023/05/28 02:38:37;;;;;;;19.13;7.22;;;;;;;-142.75;100.00;77267.19;5046236;28;20682;-65
2023/05/28 02:41:02;;;;;;;15.15;6.35;;;;;;;-142.75;100.00;77277.03;5045959;28;20112;-65
2023/05/28 02:43:27;;;;;;;23.90;7.07;;;;;;;-142.75;100.00;77277.03;5044194;28;20029;-65
2023/05/28 02:45:53;;;;;;;23.58;6.95;;;;;;;-142.75;100.00;77298.69;5045951;28;20055;-65
2023/05/28 02:48:18;;;;;;;19.02;6.00;;;;;;;-142.75;100.00;77302.63;5046151;28;20021;-65
2023/05/28 02:50:43;;;;;;;16.02;5.65;;;;;;;-142.75;100.00;77302.63;5045514;28;20397;-65
2023/05/28 02:53:09;;;;;;;18.08;5.97;;;;;;;-142.75;100.00;77302.63;5046082;28;20024;-65
2023/05/28 02:55:34;;;;;;;19.02;6.35;;;;;;;-142.75;100.00;77314.44;5045960;28;20052;-65
2023/05/28 02:57:59;;;;;;;14.20;6.53;;;;;;;-142.75;100.00;77322.31;5044667;28;20033;-65
2023/05/28 03:00:25;;;;;;;18.92;6.45;;;;;;;-142.75;100.00;77340.03;5045355;28;20036;-65
2023/05/28 03:02:50;;;;;;;17.02;7.22;;;;;;;-142.75;100.00;77338.06;5044543;28;20175;-66
2023/05/28 03:05:16;;;;;;;14.88;6.18;;;;;;;-142.75;100.00;77336.09;5045998;28;20025;-65
2023/05/28 03:07:41;;;;;;;17.08;6.07;;;;;;;-142.75;100.00;77316.41;5045901;28;20489;-64
2023/05/28 03:10:07;;;;;;;12.35;5.90;;;;;;;-142.75;100.00;77328.22;5045859;28;20056;-65
2023/05/28 03:12:32;;;;;;;17.85;6.28;;;;;;;-142.75;100.00;77328.22;5045688;28;20021;-65
2023/05/28 03:14:57;;;;;;;20.40;6.18;;;;;;;-142.75;100.00;77334.13;5047643;28;20032;-65
2023/05/28 03:17:23;;;;;;;23.48;6.72;;;;;;;-142.75;100.00;77330.19;5049474;28;20075;-65
2023/05/28 03:19:48;;;;;;;20.30;7.47;;;;;;;-142.75;100.00;77334.13;5048599;28;20112;-66
2023/05/28 03:22:13;;;;;;;19.83;6.57;;;;;;;-142.75;100.00;77316.41;5049333;28;20032;-65
2023/05/28 03:24:39;;;;;;;21.30;6.53;;;;;;;-142.75;100.00;77322.31;5048322;28;20033;-66
2023/05/28 03:27:05;;;;;;;19.38;6.82;;;;;;;-142.75;100.00;77306.56;5049574;28;20104;-66
2023/05/28 03:29:31;;;;;;;18.33;6.65;;;;;;;-142.75;100.00;77302.63;5048560;28;20110;-65
2023/05/28 03:31:56;;;;;;;17.90;6.47;;;;;;;-142.75;100.00;77302.63;5049290;28;20029;-65
2023/05/28 03:34:23;;;;;;;19.95;6.97;;;;;;;-142.75;100.00;77308.53;5049028;28;20446;-65
2023/05/28 03:36:49;;;;;;;20.52;7.22;;;;;;;-142.75;100.00;77300.66;5049395;28;20036;-65
2023/05/28 03:39:14;;;;;;;15.52;6.05;;;;;;;-142.75;100.00;77322.31;5048688;28;20029;-65
2023/05/28 03:41:39;;;;;;;16.67;7.03;;;;;;;-142.75;100.00;77330.19;5051062;28;20021;-65
2023/05/28 03:44:05;;;;;;;14.73;6.55;;;;;;;-142.75;100.00;77318.38;5048669;28;20489;-65
2023/05/28 03:46:30;;;;;;;16.52;6.32;;;;;;;-142.75;100.00;77322.31;5048503;28;20047;-64
2023/05/28 03:48:56;;;;;;;22.55;6.78;;;;;;;-142.75;100.00;77332.16;5046839;28;20040;-65
2023/05/28 03:51:23;;;;;;;16.67;6.22;;;;;;;-142.75;100.00;77338.06;5046743;28;20025;-65
2023/05/28 03:53:48;;;;;;;14.52;6.60;;;;;;;-142.75;100.00;77326.25;5047330;28;20071;-65
2023/05/28 03:56:14;;;;;;;16.38;6.65;;;;;;;-142.75;100.00;77334.13;5048407;28;20053;-65
2023/05/28 03:58:39;;;;;;;13.77;6.10;;;;;;;-142.75;100.00;77334.13;5046636;28;20033;-65
2023/05/28 04:01:04;;;;;;;16.35;6.65;;;;;;;-142.75;100.00;77338.06;5048236;28;20104;-66
2023/05/28 04:03:30;;;;;;;16.65;6.80;;;;;;;-142.75;100.00;77332.16;5048026;28;20048;-65
2023/05/28 04:05:55;;;;;;;16.77;5.97;;;;;;;-142.75;100.00;77345.94;5047039;28;20430;-66
2023/05/28 04:08:21;;;;;;;20.55;7.03;;;;;;;-142.75;100.00;77330.19;5045698;28;20108;-64
2023/05/28 04:10:47;;;;;;;22.58;7.13;;;;;;;-142.75;100.00;77334.13;5044281;28;20013;-66
2023/05/28 04:13:12;;;;;;;16.23;6.18;;;;;;;-142.75;100.00;77332.16;5047913;28;20021;-65
2023/05/28 04:15:37;;;;;;;15.27;6.30;;;;;;;-142.75;100.00;77338.06;5048619;28;20028;-65
2023/05/28 04:18:03;;;;;;;21.27;6.75;;;;;;;-142.75;100.00;77342.00;5048454;28;20029;-65
2023/05/28 04:20:29;;;;;;;19.58;6.97;;;;;;;-142.75;100.00;77330.19;5047699;28;20021;-65
2023/05/28 04:22:54;;;;;;;10.95;5.78;;;;;;;-142.75;100.00;77332.16;5048125;28;20078;-65
2023/05/28 04:25:20;;;;;;;15.32;6.45;;;;;;;-142.75;100.00;77326.25;5046662;28;20100;-64
2023/05/28 04:27:46;;;;;;;19.38;6.50;;;;;;;-142.75;100.00;77326.25;5046409;28;20024;-67
2023/05/28 04:30:12;;;;;;;15.30;6.03;;;;;;;-142.75;100.00;77349.88;5047286;28;20032;-65
2023/05/28 04:32:40;;;;;;;15.40;6.35;;;;;;;-142.75;100.00;77338.06;5046685;28;20025;-65
2023/05/28 04:35:08;;;;;;;10.80;5.72;;;;;;;-142.75;100.00;77330.19;5048267;28;20033;-65
2023/05/28 04:37:36;;;;;;;17.38;5.88;;;;;;;-142.75;100.00;77340.03;5047485;28;20021;-65
2023/05/28 04:40:05;;;;;;;13.25;5.82;;;;;;;-142.75;100.00;77349.88;5047588;28;20036;-66
2023/05/28 04:42:31;;;;;;;17.80;7.03;;;;;;;-142.75;100.00;77349.88;5047431;28;20055;-65
2023/05/28 04:44:58;;;;;;;17.10;6.72;;;;;;;-142.75;100.00;77336.09;5047647;28;20020;-65
2023/05/28 04:47:23;;;;;;;21.25;6.85;;;;;;;-142.75;100.00;77314.44;5047906;28;20107;-66
2023/05/28 04:49:49;;;;;;;16.75;6.43;;;;;;;-142.75;100.00;77298.69;5047558;28;20435;-65
2023/05/28 04:52:16;;;;;;;22.05;7.00;;;;;;;-142.75;100.00;77275.06;5047647;28;20523;-64
2023/05/28 04:54:41;;;;;;;16.85;6.53;;;;;;;-142.75;100.00;77251.44;5047415;28;20090;-65
2023/05/28 04:57:07;;;;;;;18.85;7.30;;;;;;;-142.75;100.00;77237.66;5043981;28;20082;-63
2023/05/28 04:59:34;;;;;;;16.23;7.22;;;;;;;-142.75;100.00;77219.94;5046557;28;20021;-64
2023/05/28 05:01:59;;;;;;;19.58;7.22;;;;;;;-142.75;100.00;77204.19;5046112;28;20163;-66
2023/05/28 05:04:25;;;;;;;16.02;6.35;;;;;;;-142.75;100.00;77192.38;5047021;28;20021;-65
2023/05/28 05:06:50;;;;;;;21.02;6.63;;;;;;;-142.75;100.00;77178.59;5045937;28;20025;-66
2023/05/28 05:09:15;;;;;;;17.85;7.10;;;;;;;-142.75;100.00;77160.88;5047116;28;20031;-65
2023/05/28 05:11:41;;;;;;;19.80;6.55;;;;;;;-142.75;100.00;77141.19;5046566;28;20071;-64
2023/05/28 05:14:06;;;;;;;23.20;6.90;;;;;;;-142.75;100.00;77129.38;5047278;28;20056;-66
2023/05/28 05:16:32;;;;;;;13.52;6.50;;;;;;;-142.75;100.00;77123.47;5046699;28;20056;-65
2023/05/28 05:18:57;;;;;;;22.08;6.60;;;;;;;-142.75;100.00;77111.66;5045209;28;20048;-63
2023/05/28 05:21:23;;;;;;;16.40;7.07;;;;;;;-142.75;100.00;77109.69;5059995;28;20013;-65
2023/05/28 05:23:48;;;;;;;18.63;6.40;;;;;;;-142.75;100.00;77113.63;5045035;28;20078;-64
2023/05/28 05:26:16;;;;;;;19.90;6.55;;;;;;;-142.75;100.00;77115.59;5042534;28;20017;-65
2023/05/28 05:28:42;;;;;;;22.10;6.35;;;;;;;-142.75;100.00;77105.75;5044769;28;20513;-65
2023/05/28 05:31:07;;;;;;;17.52;7.03;;;;;;;-142.75;100.00;77090.00;5042799;28;20025;-65
2023/05/28 05:33:33;;;;;;;20.45;6.82;;;;;;;-142.75;100.00;77082.13;5046571;28;20028;-65
2023/05/28 05:35:58;;;;;;;14.75;5.90;;;;;;;-142.75;100.00;77068.34;5062091;28;20494;-65
2023/05/28 05:38:23;;;;;;;15.02;6.45;;;;;;;-142.75;100.00;77066.38;5046605;28;20401;-65
2023/05/28 05:40:49;;;;;;;16.33;6.30;;;;;;;-142.75;100.00;77048.66;5046321;28;20102;-65
2023/05/28 05:43:14;;;;;;;16.52;5.60;;;;;;;-142.75;100.00;77042.75;5046576;28;20024;-65
2023/05/28 05:45:40;;;;;;;17.00;5.75;;;;;;;-142.75;100.00;77019.13;5045073;28;20037;-66
2023/05/28 05:48:05;;;;;;;14.63;5.68;;;;;;;-142.75;100.00;77015.19;5046853;28;20437;-65
2023/05/28 05:50:31;;;;;;;17.95;6.82;;;;;;;-142.75;100.00;76989.59;5043280;28;20017;-66
2023/05/28 05:52:59;;;;;;;26.67;6.35;;;;;;;-142.75;100.00;76989.59;5044922;28;20029;-66
2023/05/28 05:55:24;;;;;;;12.98;5.18;;;;;;;-142.75;100.00;76973.84;5058917;28;20468;-63
2023/05/28 05:57:49;;;;;;;12.20;5.60;;;;;;;-142.75;100.00;76973.84;5046140;28;20024;-65
2023/05/28 06:00:15;;;;;;;19.40;5.50;;;;;;;-142.75;100.00;76960.06;5045843;28;20033;-65
2023/05/28 06:02:41;;;;;;;13.65;5.70;;;;;;;-142.75;100.00;76969.91;5044760;28;20021;-64
2023/05/28 06:05:06;;;;;;;16.58;5.85;;;;;;;-142.75;100.00;76960.06;5061709;28;20405;-65
2023/05/28 06:07:32;;;;;;;20.80;6.60;;;;;;;-142.75;100.00;76960.06;5045708;28;20110;-65
2023/05/28 06:09:58;;;;;;;12.20;5.22;;;;;;;-142.75;100.00;76950.22;5060569;28;20021;-65
2023/05/28 06:12:23;;;;;;;16.13;5.72;;;;;;;-142.75;100.00;76928.56;5059579;28;20524;-65
2023/05/28 06:14:49;;;;;;;17.42;5.65;;;;;;;-142.75;100.00;76924.63;5065289;22;20047;-63
2023/05/28 06:17:14;;;;;;;10.10;4.57;;;;;;;-142.75;100.00;76928.56;5043873;28;20691;-64
2023/05/28 06:19:41;;;;;;;13.18;5.63;;;;;;;-142.75;100.00;76940.38;5045557;28;20087;-63
2023/05/28 06:22:06;;;;;;;16.40;5.18;;;;;;;-142.75;100.00;76918.72;5061918;28;20043;-63
2023/05/28 06:24:31;;;;;;;13.45;5.35;;;;;;;-142.75;100.00;76912.81;5047792;28;20029;-64
2023/05/28 06:26:57;;;;;;;12.50;4.90;;;;;;;-142.75;100.00;76879.34;5026202;28;20455;-63
2023/05/28 06:29:22;;;;;;;12.77;4.68;;;;;;;-142.75;100.00;76875.41;5025893;28;20049;-64
2023/05/28 06:31:48;;;;;;;13.38;5.32;;;;;;;-142.75;100.00;76875.41;5026263;28;20026;-63
2023/05/28 06:34:13;;;;;;;15.65;5.38;;;;;;;-142.75;100.00;76885.25;5025933;28;20088;-64
2023/05/28 06:36:39;;;;;;;15.30;5.13;;;;;;;-142.75;100.00;76863.59;5026223;28;20083;-63
2023/05/28 06:39:04;;;;;;;19.40;4.97;;;;;;;-142.75;100.00;76847.84;5025846;28;20041;-62
2023/05/28 06:41:30;;;;;;;17.50;5.03;;;;;;;-142.75;100.00;76830.13;5024903;28;20038;-65
2023/05/28 06:43:55;;;;;;;13.98;5.68;;;;;;;-142.75;100.00;76834.06;5025762;28;20045;-64
2023/05/28 06:46:21;;;;;;;19.30;5.35;;;;;;;-142.75;100.00;76802.56;5026198;28;20028;-64
2023/05/28 06:48:46;;;;;;;17.02;5.10;;;;;;;-142.75;100.00;76788.81;5025732;28;20564;-64
2023/05/28 06:51:12;;;;;;;15.68;4.63;;;;;;;-142.75;100.00;76775.03;5026994;28;20060;-62
2023/05/28 06:53:38;;;;;;;20.95;4.55;;;;;;;-142.75;100.00;76786.84;5029235;28;20072;-64
2023/05/28 06:56:05;;;;;;;15.32;4.85;;;;;;;-142.75;100.00;76771.09;5029352;28;20508;-63
2023/05/28 06:58:30;;;;;;;13.63;4.57;;;;;;;-142.75;100.00;76769.13;5029829;28;20053;-63
2023/05/28 07:00:56;;;;;;;13.35;4.80;;;;;;;-142.75;100.00;76747.47;5029492;28;20052;-64
2023/05/28 07:03:23;;;;;;;15.55;6.07;;;;;;;-142.75;100.00;76731.72;5028571;28;20049;-64
2023/05/28 07:05:49;;;;;;;12.35;4.28;;;;;;;-142.75;100.00;76723.84;5028951;28;20091;-63
2023/05/28 07:08:14;;;;;;;11.77;4.60;;;;;;;-142.75;100.00;76743.53;5029720;28;20029;-64
2023/05/28 07:10:39;;;;;;;12.90;5.05;;;;;;;-142.75;100.00;76729.75;5029446;28;20380;-64
2023/05/28 07:13:05;;;;;;;13.57;4.65;;;;;;;-142.75;100.00;76698.25;5028617;28;20025;-64
2023/05/28 07:15:30;;;;;;;18.35;5.18;;;;;;;-142.75;100.00;76678.56;5028648;28;20026;-64
2023/05/28 07:17:55;;;;;;;13.75;4.75;;;;;;;-142.75;100.00;76666.75;5029266;28;20060;-64
2023/05/28 07:20:21;;;;;;;13.77;5.00;;;;;;;-142.75;100.00;76656.91;5029200;28;20056;-64
2023/05/28 07:22:46;;;;;;;11.85;4.90;;;;;;;-142.75;100.00;76666.75;5029276;28;20109;-64
2023/05/28 07:25:11;;;;;;;11.90;4.95;;;;;;;-142.75;100.00;76649.03;5029280;28;20564;-62
2023/05/28 07:27:37;;;;;;;12.88;4.70;;;;;;;-142.75;100.00;76641.16;5029498;28;20031;-64
2023/05/28 07:30:03;;;;;;;16.27;5.05;;;;;;;-142.75;100.00;76660.84;5029035;28;20045;-63
2023/05/28 07:32:28;;;;;;;12.85;4.60;;;;;;;-142.75;100.00;76633.28;5029188;28;20099;-63
2023/05/28 07:34:53;;;;;;;12.48;4.55;;;;;;;-142.75;100.00;76631.31;5029280;28;20474;-63
2023/05/28 07:37:19;;;;;;;15.30;4.68;;;;;;;-142.75;100.00;76637.22;5029365;28;20060;-63
2023/05/28 07:39:45;;;;;;;9.40;4.28;;;;;;;-142.75;100.00;76627.38;5028672;28;20022;-63
2023/05/28 07:42:10;;;;;;;14.07;4.25;;;;;;;-142.75;100.00;76607.69;5029051;28;20029;-63
2023/05/28 07:44:36;;;;;;;11.27;4.43;;;;;;;-142.75;100.00;76586.03;5028952;28;20465;-63
2023/05/28 07:47:01;;;;;;;15.15;4.55;;;;;;;-142.75;100.00;76552.56;5028977;28;20029;-63
2023/05/28 07:49:26;;;;;;;10.32;4.47;;;;;;;-142.75;100.00;76509.28;5028539;28;20029;-63
2023/05/28 07:51:52;;;;;;;14.98;4.00;;;;;;;-142.75;100.00;76525.03;5044271;28;20387;-63
2023/05/28 07:54:17;;;;;;;13.93;4.72;;;;;;;-142.75;100.00;76546.66;5028705;28;20017;-62
2023/05/28 07:56:43;;;;;;;10.05;4.00;;;;;;;-142.75;100.00;76558.47;5028808;28;20478;-63
2023/05/28 07:59:08;;;;;;;14.63;4.40;;;;;;;-142.75;100.00;76540.75;5028807;28;20499;-63
2023/05/28 08:01:34;;;;;;;9.15;4.15;;;;;;;-142.75;100.00;76530.91;5028353;28;20025;-63
2023/05/28 08:04:00;;;;;;;14.18;4.53;;;;;;;-142.75;100.00;76517.16;5026834;28;20087;-63
2023/05/28 08:06:26;;;;;;;16.30;4.72;;;;;;;-142.75;100.00;76495.50;5028708;28;20391;-62
2023/05/28 08:08:51;;;;;;;16.00;5.82;;;;;;;-142.75;100.00;76483.69;5028777;28;20036;-63
2023/05/28 08:11:17;;;;;;;13.88;4.40;;;;;;;-142.75;100.00;76456.13;5027475;28;20029;-63
2023/05/28 08:13:43;;;;;;;13.52;4.18;;;;;;;-142.75;100.00;76444.31;5028337;28;20022;-62
2023/05/28 08:16:11;;;;;;;16.05;5.00;;;;;;;-142.75;100.00;76401.00;5027380;28;20025;-62
2023/05/28 08:18:38;;;;;;;9.52;4.03;;;;;;;-142.75;98.50;76404.94;5010728;28;20068;-63
2023/05/28 08:21:04;;;;;;;13.35;3.63;;;;;;;-142.75;100.00;76365.56;5028078;28;20044;-63
2023/05/28 08:23:34;;;;;;;11.15;3.92;;;;;;;-142.75;95.00;76363.59;5027271;28;20108;-63
2023/05/28 08:25:59;;;;;;;10.88;4.10;;;;;;;-142.75;89.96;76408.88;5028302;28;20029;-63
2023/05/28 08:28:25;;;;;;;10.82;3.92;;;;;;;-142.75;90.16;76420.69;5028137;28;20479;-62
2023/05/28 08:30:50;;;;;;;14.43;4.53;;;;;;;-142.75;90.24;76412.81;5027157;28;20057;-63
2023/05/28 08:33:16;;;;;;;14.80;4.25;;;;;;;-142.75;88.39;76404.94;5028077;28;20017;-64
2023/05/28 08:35:41;;;;;;;10.52;3.88;;;;;;;-142.75;92.15;76406.91;5027975;28;20029;-65
2023/05/28 08:38:06;;;;;;;9.07;3.95;;;;;;;-142.75;93.16;76414.78;5027760;28;20049;-63
2023/05/28 08:40:38;;;;;;;11.20;3.55;;;;;;;-142.75;92.79;76371.47;5027765;28;20036;-63
2023/05/28 08:43:04;;;;;;;10.85;3.92;;;;;;;-142.75;95.37;76340.00;5028006;28;20509;-63
2023/05/28 08:45:29;;;;;;;12.57;4.30;;;;;;;-142.75;92.23;76330.16;5027825;28;20021;-63
2023/05/28 08:47:55;;;;;;;9.60;3.40;;;;;;;-142.75;92.60;76314.41;5028027;28;20395;-63
2023/05/28 08:50:24;;;;;;;12.18;3.80;;;;;;;-142.75;92.32;76341.97;5027326;28;20529;-62
2023/05/28 08:52:51;;;;;;;9.25;3.75;;;;;;;-142.75;88.70;76334.09;5027589;28;20025;-63
2023/05/28 08:55:16;;;;;;;11.40;3.95;;;;;;;-142.75;90.35;76300.63;5027647;28;20022;-62
2023/05/28 08:57:44;;;;;;;11.43;4.13;;;;;;;-142.75;94.20;76284.88;5026180;28;20032;-63
2023/05/28 09:00:11;;;;;;;12.80;3.83;;;;;;;-142.75;92.45;76282.91;5027251;28;20026;-63
2023/05/28 09:02:38;;;;;;;12.88;3.97;;;;;;;-142.75;91.91;76251.41;5027606;28;20033;-63
2023/05/28 09:05:04;;;;;;;14.13;3.83;;;;;;;-142.75;85.60;76265.19;5027551;28;20108;-63
2023/05/28 09:07:30;;;;;;;12.65;3.85;;;;;;;-142.75;81.97;76322.28;5027579;28;20051;-63
2023/05/28 09:09:57;;;;;;;12.82;3.70;;;;;;;-142.75;84.15;76343.94;5027316;28;20036;-62
2023/05/28 09:12:23;;;;;;;13.70;4.10;;;;;;;-142.75;88.42;76328.19;5026071;28;20071;-63
2023/05/28 09:14:52;;;;;;;10.77;3.88;;;;;;;-142.75;87.91;76316.38;5026162;28;20134;-62
2023/05/28 09:17:17;;;;;;;14.05;3.47;;;;;;;-142.75;89.96;76322.28;5027524;28;20029;-62
2023/05/28 09:19:52;;;;;;;14.77;4.00;;;;;;;-142.75;87.40;76306.53;5025944;28;20028;-63
2023/05/28 09:22:18;;;;;;;10.05;3.63;;;;;;;-142.75;88.91;76296.69;5026172;28;20522;-62
2023/05/28 09:24:48;;;;;;;10.85;3.90;;;;;;;-142.75;89.12;76296.69;5026962;28;20029;-63
2023/05/28 09:27:17;;;;;;;10.57;4.45;;;;;;;-142.75;85.13;76318.34;5027261;28;20033;-63
2023/05/28 09:29:42;;;;;;;11.77;4.35;;;;;;;-142.75;87.65;76338.03;5026792;28;20104;-62
2023/05/28 09:32:08;;;;;;;13.20;3.90;;;;;;;-142.75;91.40;76300.63;5042604;28;20179;-63
2023/05/28 09:34:34;;;;;;;11.20;3.78;;;;;;;-142.75;90.13;76306.53;5026913;28;20017;-63
2023/05/28 09:37:03;;;;;;;10.40;4.00;;;;;;;-142.75;88.67;76263.22;5026984;28;20037;-63
2023/05/28 09:39:29;;;;;;;7.88;3.53;;;;;;;-142.75;87.58;76275.03;5026775;28;20017;-63
2023/05/28 09:42:13;;;;;;;8.55;3.30;;;;;;;-142.75;87.79;76267.16;5026951;28;20020;-63
2023/05/28 09:44:40;;;;;;;13.32;3.58;;;;;;;-142.75;86.88;76277.00;5026165;28;20036;-62
2023/05/28 09:47:18;;;;;;;11.20;4.20;;;;;;;-142.75;89.28;76282.91;5026424;28;20445;-62
2023/05/28 09:49:45;;;;;;;10.48;4.13;;;;;;;-142.75;86.43;76306.53;5026631;28;20063;-62
2023/05/28 09:52:21;;;;;;;13.48;3.88;;;;;;;-142.75;87.35;76265.19;5027006;28;20036;-63
2023/05/28 09:54:52;;;;;;;11.35;4.00;;;;;;;-142.75;84.47;76241.56;5026777;28;20026;-62
2023/05/28 09:57:22;;;;;;;13.80;4.00;;;;;;;-142.75;82.14;76284.88;5025762;28;20032;-62
2023/05/28 09:59:53;;;;;;;11.27;3.53;;;;;;;-142.75;82.54;76247.47;5025845;28;20033;-63
2023/05/28 10:02:34;;;;;;;13.07;3.33;;;;;;;-142.75;79.19;76253.38;5026545;28;20031;-60
2023/05/28 10:05:02;;;;;;;11.43;3.97;;;;;;;-142.75;80.75;76247.47;5026281;28;20030;-63
2023/05/28 10:07:29;;;;;;;11.43;3.75;;;;;;;-142.75;78.77;76243.53;5025710;28;20026;-63
2023/05/28 10:09:57;;;;;;;10.18;3.28;;;;;;;-142.75;81.78;76247.47;5026237;28;20033;-63
2023/05/28 10:12:27;;;;;;;15.32;3.92;;;;;;;-142.75;83.03;76255.34;5026616;28;20083;-63
2023/05/28 10:14:53;;;;;;;12.30;3.65;;;;;;;-142.75;80.50;76267.16;5026215;28;20052;-62
2023/05/28 10:17:19;;;;;;;9.10;3.80;;;;;;;-142.75;85.89;76221.88;5026606;28;20482;-61
2023/05/28 10:19:45;;;;;;;8.95;3.33;;;;;;;-142.75;82.73;76204.16;5026028;28;20234;-62
2023/05/28 10:22:12;;;;;;;9.75;3.53;;;;;;;-142.75;83.85;76170.72;5026548;28;20029;-63
2023/05/28 10:24:38;;;;;;;13.00;4.00;;;;;;;-142.75;82.64;76192.38;5027745;28;20029;-63
2023/05/28 10:27:07;;;;;;;13.10;4.22;;;;;;;-142.75;81.44;76176.63;5030588;28;20091;-64
2023/05/28 10:29:48;;;;;;;13.10;3.63;;;;;;;-142.75;79.24;76233.69;5029196;28;21479;-61
2023/05/28 10:32:17;;;;;;;8.23;3.50;;;;;;;-142.75;84.76;76190.41;5030494;28;20071;-63
2023/05/28 10:34:43;;;;;;;9.57;3.97;;;;;;;-142.75;82.67;76176.63;5012473;28;20021;-63
2023/05/28 10:37:10;;;;;;;11.88;3.78;;;;;;;-142.75;84.41;76164.81;5028845;28;20032;-64
2023/05/28 10:39:38;;;;;;;8.32;3.67;;;;;;;-142.75;81.72;76151.03;5029388;28;20025;-60
2023/05/28 10:42:06;;;;;;;12.18;4.38;;;;;;;-142.75;82.14;76121.50;5044990;28;20045;-62
2023/05/28 10:44:50;;;;;;;12.27;3.67;;;;;;;-142.75;81.90;76109.69;5028353;28;20091;-63
2023/05/28 10:47:17;;;;;;;10.52;4.68;;;;;;;-142.75;78.85;76090.00;5029909;28;20398;-62
2023/05/28 10:50:11;;;;;;;10.15;3.78;;;;;;;-142.75;81.36;76070.34;5027904;28;20021;-62
2023/05/28 10:52:36;;;;;;;13.95;4.60;;;;;;;-142.75;80.61;76074.25;5029766;28;20060;-63
2023/05/28 10:55:03;;;;;;;13.93;4.35;;;;;;;-142.75;78.10;76048.69;5030540;28;20048;-63
2023/05/28 10:57:45;;;;;;;13.32;4.10;;;;;;;-142.75;76.86;76036.88;5030002;28;20032;-63
2023/05/28 11:00:14;;;;;;;12.90;4.38;;;;;;;-142.75;77.27;76015.22;5027389;28;20029;-62
2023/05/28 11:02:46;;;;;;;11.70;4.18;;;;;;;-142.75;75.80;76003.41;5028921;28;20108;-63